Metar z pełnej godziny Komunikat METAR ze strony awiacja.imgw.pl Metar G00 EPKT METAR EPKT 231300Z 25012KT CAVOK 24/08 Q1011 =